createdAt,value
2023-03-01T00:01:42.109Z,9.93
2023-03-01T00:04:09.456Z,12.15
2023-03-01T00:06:36.807Z,11.23
2023-03-01T00:09:04.623Z,11.68
2023-03-01T00:11:34.118Z,12.23
2023-03-01T00:14:02.731Z,12.18
2023-03-01T00:16:35.685Z,10.23
2023-03-01T00:19:03.515Z,11.23
2023-03-01T00:21:31.309Z,9.70
2023-03-01T00:23:59.236Z,10.75
2023-03-01T00:26:27.423Z,11.40
2023-03-01T00:28:56.432Z,12.05
2023-03-01T00:31:26.387Z,10.75
2023-03-01T00:33:58.048Z,12.20
2023-03-01T00:36:27.765Z,11.75
2023-03-01T00:38:55.689Z,13.15
2023-03-01T00:41:23.977Z,9.95
2023-03-01T00:43:51.513Z,10.25
2023-03-01T00:46:21.865Z,12.65
2023-03-01T00:48:50.096Z,12.32
2023-03-01T00:51:23.439Z,13.18
2023-03-01T00:53:53.503Z,13.63
2023-03-01T00:56:21.042Z,14.30
2023-03-01T00:58:48.542Z,12.45
2023-03-01T01:01:19.477Z,11.68
2023-03-01T01:03:49.810Z,10.57
2023-03-01T01:06:40.756Z,12.82
2023-03-01T01:09:08.473Z,12.07
2023-03-01T01:11:37.493Z,11.88
2023-03-01T01:14:05.143Z,10.35
2023-03-01T01:16:32.778Z,11.32
2023-03-01T01:19:00.672Z,15.07
2023-03-01T01:21:29.226Z,13.20
2023-03-01T01:24:00.438Z,13.27
2023-03-01T01:26:30.544Z,11.32
2023-03-01T01:28:58.716Z,12.85
2023-03-01T01:31:29.113Z,13.38
2023-03-01T01:33:57.312Z,12.00
2023-03-01T01:36:25.024Z,12.55
2023-03-01T01:38:52.377Z,13.23
2023-03-01T01:41:20.223Z,14.00
2023-03-01T01:44:11.097Z,13.77
2023-03-01T01:46:41.886Z,15.15
2023-03-01T01:49:33.023Z,13.00
2023-03-01T01:52:18.387Z,11.60
2023-03-01T01:55:08.613Z,13.35
2023-03-01T01:57:46.951Z,14.15
2023-03-01T02:00:23.794Z,14.30
2023-03-01T02:02:56.212Z,13.20
2023-03-01T02:05:33.780Z,12.07
2023-03-01T02:08:01.734Z,14.55
2023-03-01T02:10:30.328Z,15.73
2023-03-01T02:12:58.746Z,16.67
2023-03-01T02:15:27.565Z,14.10
2023-03-01T02:17:55.928Z,14.13
2023-03-01T02:20:37.056Z,14.90
2023-03-01T02:23:04.614Z,15.80
2023-03-01T02:25:52.752Z,14.98
2023-03-01T02:28:30.911Z,17.23
2023-03-01T02:31:19.986Z,19.27
2023-03-01T02:33:49.436Z,18.42
2023-03-01T02:36:21.635Z,19.15
2023-03-01T02:38:52.782Z,20.83
2023-03-01T02:41:22.175Z,21.38
2023-03-01T02:43:49.733Z,20.00
2023-03-01T02:46:18.970Z,17.05
2023-03-01T02:48:47.903Z,18.95
2023-03-01T02:51:33.930Z,21.13
2023-03-01T02:54:21.740Z,17.38
2023-03-01T02:56:49.904Z,18.23
2023-03-01T02:59:23.270Z,20.73
2023-03-01T03:01:51.364Z,21.15
2023-03-01T03:04:19.983Z,19.70
2023-03-01T03:06:51.351Z,18.88
2023-03-01T03:09:19.769Z,17.65
2023-03-01T03:11:48.018Z,20.02
2023-03-01T03:14:17.742Z,18.63
2023-03-01T03:16:50.626Z,18.33
2023-03-01T03:19:20.999Z,18.30
2023-03-01T03:21:48.341Z,20.98
2023-03-01T03:24:15.727Z,22.08
2023-03-01T03:26:43.025Z,20.90
2023-03-01T03:29:10.356Z,23.70
2023-03-01T03:31:37.761Z,20.13
2023-03-01T03:34:05.120Z,19.20
2023-03-01T03:36:32.573Z,21.67
2023-03-01T03:39:02.610Z,22.17
2023-03-01T03:41:29.895Z,18.52
2023-03-01T03:43:57.222Z,22.02
2023-03-01T03:46:24.498Z,24.65
2023-03-01T03:48:52.059Z,24.73
2023-03-01T03:51:19.861Z,22.10
2023-03-01T03:53:47.157Z,23.00
2023-03-01T03:56:14.782Z,26.40
2023-03-01T03:58:42.172Z,29.02
2023-03-01T04:01:09.512Z,25.83
2023-03-01T04:03:36.805Z,25.05
2023-03-01T04:06:05.319Z,24.88
2023-03-01T04:08:33.123Z,24.40
2023-03-01T04:11:25.249Z,27.00
2023-03-01T04:13:55.692Z,22.48
2023-03-01T04:16:24.419Z,24.25
2023-03-01T04:18:53.256Z,20.73
2023-03-01T04:21:21.277Z,25.52
2023-03-01T04:23:49.338Z,22.73
2023-03-01T04:26:16.681Z,22.63
2023-03-01T04:28:46.368Z,25.45
2023-03-01T04:31:18.409Z,27.58
2023-03-01T04:36:18.942Z,22.20
2023-03-01T04:38:49.681Z,21.30
2023-03-01T04:41:22.029Z,20.90
2023-03-01T04:43:49.824Z,25.27
2023-03-01T04:46:20.607Z,22.50
2023-03-01T04:48:50.859Z,20.38
2023-03-01T04:51:19.304Z,21.27
2023-03-01T04:53:46.664Z,20.60
2023-03-01T04:56:14.936Z,26.63
2023-03-01T04:58:42.472Z,20.50
2023-03-01T05:01:17.854Z,19.42
2023-03-01T05:03:47.174Z,18.75
2023-03-01T05:06:16.012Z,20.60
2023-03-01T05:08:44.180Z,19.30
2023-03-01T05:11:12.010Z,19.45
2023-03-01T05:13:40.464Z,22.20
2023-03-01T05:16:12.274Z,23.70
2023-03-01T05:18:41.132Z,19.20
2023-03-01T05:21:16.997Z,20.92
2023-03-01T05:23:45.157Z,20.38
2023-03-01T05:26:27.986Z,21.17
2023-03-01T05:28:59.823Z,29.02
2023-03-01T05:31:28.177Z,24.45
2023-03-01T05:33:55.753Z,20.95
2023-03-01T05:36:23.102Z,20.55
2023-03-01T05:38:50.542Z,23.25
2023-03-01T05:41:20.422Z,20.95
2023-03-01T05:43:47.773Z,26.35
2023-03-01T05:46:16.235Z,20.70
2023-03-01T05:48:43.775Z,21.10
2023-03-01T05:51:11.190Z,25.25
2023-03-01T05:53:38.541Z,24.02
2023-03-01T05:56:07.080Z,24.52
2023-03-01T05:58:34.587Z,27.85
2023-03-01T06:01:01.825Z,26.60
2023-03-01T06:03:29.096Z,27.75
2023-03-01T06:06:15.813Z,22.88
2023-03-01T06:08:43.210Z,24.25
2023-03-01T06:11:10.852Z,24.70
2023-03-01T06:13:38.170Z,24.63
2023-03-01T06:16:09.146Z,28.33
2023-03-01T06:18:37.649Z,28.30
2023-03-01T06:21:06.234Z,24.35
2023-03-01T06:23:34.114Z,28.63
2023-03-01T06:26:05.637Z,25.92
2023-03-01T06:28:32.994Z,29.98
2023-03-01T06:31:00.301Z,25.73
2023-03-01T06:33:27.736Z,24.27
2023-03-01T06:35:57.829Z,27.38
2023-03-01T06:38:26.947Z,28.88
2023-03-01T06:40:55.887Z,27.98
2023-03-01T06:43:24.457Z,27.80
2023-03-01T06:45:51.941Z,27.98
2023-03-01T06:48:19.348Z,174.02
2023-03-01T06:50:46.638Z,20.50
2023-03-01T06:53:13.985Z,25.83
2023-03-01T06:55:41.235Z,33.67
2023-03-01T06:58:10.351Z,22.83
2023-03-01T07:00:37.737Z,24.73
2023-03-01T07:03:05.237Z,23.77
2023-03-01T07:05:34.230Z,27.48
2023-03-01T07:08:03.880Z,24.45
2023-03-01T07:10:31.209Z,25.75
2023-03-01T07:12:59.268Z,23.83
2023-03-01T07:15:27.739Z,21.77
2023-03-01T07:17:55.419Z,28.52
2023-03-01T07:20:25.606Z,22.92
2023-03-01T07:22:54.512Z,24.33
2023-03-01T07:25:22.134Z,22.35
2023-03-01T07:27:56.087Z,27.02
2023-03-01T07:30:27.084Z,33.47
2023-03-01T07:32:58.108Z,33.38
2023-03-01T07:35:29.040Z,25.58
2023-03-01T07:37:57.434Z,25.10
2023-03-01T07:40:24.694Z,23.20
2023-03-01T07:42:56.779Z,24.38
2023-03-01T07:45:24.107Z,27.80
2023-03-01T07:47:52.698Z,23.08
2023-03-01T07:50:20.435Z,19.45
2023-03-01T07:52:49.381Z,20.88
2023-03-01T07:55:17.655Z,25.50
2023-03-01T07:57:45.009Z,24.50
2023-03-01T08:00:14.229Z,24.10
2023-03-01T08:02:42.929Z,23.63
2023-03-01T08:05:11.172Z,29.63
2023-03-01T08:07:38.803Z,25.20
2023-03-01T08:10:06.766Z,24.60
2023-03-01T08:12:34.171Z,24.80
2023-03-01T08:15:01.451Z,27.05
2023-03-01T08:17:28.909Z,25.83
2023-03-01T08:19:56.226Z,26.88
2023-03-01T08:22:23.611Z,23.15
2023-03-01T08:24:50.932Z,31.95
2023-03-01T08:27:18.473Z,23.77
2023-03-01T08:29:45.842Z,25.23
2023-03-01T08:32:13.289Z,25.27
2023-03-01T08:34:42.472Z,23.60
2023-03-01T08:37:10.894Z,23.65
2023-03-01T08:39:38.215Z,23.85
2023-03-01T08:42:05.749Z,25.10
2023-03-01T08:44:33.218Z,30.60
2023-03-01T08:47:01.034Z,25.00
2023-03-01T08:49:28.316Z,28.70
2023-03-01T08:51:55.700Z,51.60
2023-03-01T08:54:26.102Z,52.40
2023-03-01T08:56:53.432Z,24.50
2023-03-01T08:59:20.826Z,25.23
2023-03-01T09:01:48.525Z,44.33
2023-03-01T09:04:17.213Z,32.67
2023-03-01T09:06:47.308Z,29.98
2023-03-01T09:09:17.481Z,30.42
2023-03-01T09:11:47.398Z,30.73
2023-03-01T09:14:15.537Z,29.25
2023-03-01T09:16:43.220Z,28.00
2023-03-01T09:19:10.594Z,28.45
2023-03-01T09:21:40.967Z,22.98
2023-03-01T09:24:15.922Z,25.95
2023-03-01T09:26:43.792Z,27.73
2023-03-01T09:29:11.401Z,18.73
2023-03-01T09:31:39.133Z,20.30
2023-03-01T09:34:06.776Z,19.15
2023-03-01T09:36:34.905Z,14.25
2023-03-01T09:39:03.426Z,17.90
2023-03-01T09:41:44.803Z,19.92
2023-03-01T09:44:32.132Z,16.52
2023-03-01T09:47:00.531Z,22.33
2023-03-01T09:49:40.576Z,26.42
2023-03-01T09:52:17.116Z,32.97
2023-03-01T09:54:44.457Z,26.20
2023-03-01T09:57:17.585Z,30.67
2023-03-01T09:59:53.895Z,29.42
2023-03-01T10:02:50.351Z,23.73
2023-03-01T10:05:28.518Z,25.05
2023-03-01T10:08:13.853Z,25.98
2023-03-01T10:10:45.267Z,25.60
2023-03-01T10:13:25.550Z,43.05
2023-03-01T10:16:02.895Z,30.50
2023-03-01T10:18:33.779Z,81.55
2023-03-01T10:21:03.831Z,26.40
2023-03-01T10:23:39.168Z,28.75
2023-03-01T10:26:25.177Z,27.13
2023-03-01T10:28:58.497Z,23.65
2023-03-01T10:31:38.273Z,30.15
2023-03-01T10:34:20.705Z,31.08
2023-03-01T10:36:51.990Z,32.55
2023-03-01T10:39:21.975Z,27.08
2023-03-01T10:42:07.136Z,27.92
2023-03-01T10:44:40.373Z,28.33
2023-03-01T10:47:21.416Z,27.65
2023-03-01T10:50:05.075Z,30.85
2023-03-01T10:52:39.150Z,32.40
2023-03-01T10:55:32.318Z,27.10
2023-03-01T10:58:20.229Z,24.80
2023-03-01T11:00:59.801Z,36.78
2023-03-01T11:03:39.509Z,29.27
2023-03-01T11:06:22.623Z,25.08
2023-03-01T11:08:51.609Z,28.75
2023-03-01T11:11:34.460Z,33.00
2023-03-01T11:14:26.534Z,29.67
2023-03-01T11:17:12.817Z,20.90
2023-03-01T11:19:40.274Z,21.85
2023-03-01T11:22:18.965Z,26.88
2023-03-01T11:25:00.086Z,26.83
2023-03-01T11:27:40.210Z,23.42
2023-03-01T11:30:19.247Z,22.83
2023-03-01T11:33:09.173Z,22.20
2023-03-01T11:35:44.105Z,20.92
2023-03-01T11:38:26.463Z,26.40
2023-03-01T11:41:06.500Z,25.10
2023-03-01T11:43:56.139Z,25.55
2023-03-01T11:46:32.775Z,24.30
2023-03-01T11:49:37.835Z,26.38
2023-03-01T11:52:05.222Z,27.35
2023-03-01T11:55:10.974Z,28.88
2023-03-01T11:57:57.077Z,26.27
2023-03-01T12:00:42.897Z,29.38
2023-03-01T12:03:47.900Z,27.95
2023-03-01T12:06:44.613Z,20.88
2023-03-01T12:09:39.429Z,25.23
2023-03-01T12:12:21.994Z,24.10
2023-03-01T12:15:07.663Z,21.95
2023-03-01T12:18:09.215Z,17.38
2023-03-01T12:20:48.757Z,16.20
2023-03-01T12:23:39.427Z,20.73
2023-03-01T12:26:15.929Z,17.60
2023-03-01T12:28:55.411Z,19.95
2023-03-01T12:31:44.558Z,23.50
2023-03-01T12:34:30.028Z,13.40
2023-03-01T12:37:34.740Z,15.50
2023-03-01T12:40:27.099Z,13.95
2023-03-01T12:42:58.588Z,15.55
2023-03-01T12:45:45.533Z,11.60
2023-03-01T12:48:26.476Z,14.85
2023-03-01T12:50:58.693Z,12.50
2023-03-01T12:53:34.004Z,11.23
2023-03-01T12:56:06.278Z,6.32
2023-03-01T12:59:00.361Z,7.93
2023-03-01T13:01:37.671Z,7.80
2023-03-01T13:04:27.887Z,11.63
2023-03-01T13:07:13.979Z,11.30
2023-03-01T13:10:03.724Z,11.07
2023-03-01T13:12:49.763Z,13.63
2023-03-01T13:15:23.042Z,9.70
2023-03-01T13:17:53.814Z,12.05
2023-03-01T13:20:45.914Z,12.93
2023-03-01T13:23:28.392Z,12.65
2023-03-01T13:26:17.792Z,16.80
2023-03-01T13:28:45.064Z,10.45
2023-03-01T13:31:18.253Z,10.60
2023-03-01T13:33:48.930Z,12.02
2023-03-01T13:36:28.790Z,17.80
2023-03-01T13:39:00.278Z,19.42
2023-03-01T13:41:40.093Z,16.00
2023-03-01T13:44:22.726Z,17.25
2023-03-01T13:46:52.444Z,10.82
2023-03-01T13:49:23.883Z,17.38
2023-03-01T13:51:52.288Z,14.13
2023-03-01T13:54:30.747Z,15.25
2023-03-01T13:57:00.141Z,8.65
2023-03-01T13:59:27.935Z,16.77
2023-03-01T14:02:02.098Z,14.52
2023-03-01T14:04:36.788Z,12.18
2023-03-01T14:07:30.515Z,10.30
2023-03-01T14:10:04.149Z,12.68
2023-03-01T14:12:46.068Z,10.00
2023-03-01T14:15:22.950Z,17.50
2023-03-01T14:18:13.504Z,12.80
2023-03-01T14:20:43.931Z,10.15
2023-03-01T14:23:19.698Z,13.55
2023-03-01T14:25:52.799Z,10.45
2023-03-01T14:28:26.630Z,10.05
2023-03-01T14:30:59.381Z,14.70
2023-03-01T14:33:43.153Z,15.82
2023-03-01T14:36:13.490Z,7.93
2023-03-01T14:38:46.321Z,9.82
2023-03-01T14:41:21.070Z,13.48
2023-03-01T14:44:02.094Z,12.48
2023-03-01T14:46:37.658Z,9.70
2023-03-01T14:49:18.192Z,7.43
2023-03-01T14:51:57.921Z,11.30
2023-03-01T14:54:36.785Z,7.28
2023-03-01T14:57:04.528Z,8.13
2023-03-01T14:59:38.088Z,8.30
2023-03-01T15:02:05.600Z,6.72
2023-03-01T15:04:34.736Z,10.48
2023-03-01T15:07:05.983Z,9.02
2023-03-01T15:09:36.889Z,12.68
2023-03-01T15:12:29.472Z,10.48
2023-03-01T15:17:39.474Z,12.77
2023-03-01T15:20:17.719Z,10.38
2023-03-01T15:22:49.641Z,8.02
2023-03-01T15:25:19.388Z,10.05
2023-03-01T15:27:51.428Z,11.60
2023-03-01T15:30:38.673Z,14.70
2023-03-01T15:33:29.853Z,15.07
2023-03-01T15:35:59.250Z,10.20
2023-03-01T15:38:51.737Z,16.73
2023-03-01T15:41:38.704Z,11.95
2023-03-01T15:44:30.004Z,11.35
2023-03-01T15:47:22.677Z,9.57
2023-03-01T15:49:55.448Z,16.60
2023-03-01T15:52:36.112Z,11.73
2023-03-01T15:55:16.626Z,15.00
2023-03-01T15:57:44.034Z,11.85
2023-03-01T16:00:14.285Z,14.63
2023-03-01T16:02:43.492Z,9.48
2023-03-01T16:05:18.420Z,13.40
2023-03-01T16:07:45.717Z,11.93
2023-03-01T16:10:13.517Z,9.80
2023-03-01T16:12:41.108Z,13.45
2023-03-01T16:15:26.859Z,10.82
2023-03-01T16:17:56.121Z,9.23
2023-03-01T16:20:28.591Z,10.30
2023-03-01T16:23:05.771Z,10.68
2023-03-01T16:25:35.828Z,12.77
2023-03-01T16:28:09.917Z,12.30
2023-03-01T16:30:41.066Z,9.90
2023-03-01T16:33:25.252Z,12.68
2023-03-01T16:35:56.896Z,11.77
2023-03-01T16:38:24.355Z,12.55
2023-03-01T16:40:55.147Z,11.98
2023-03-01T16:43:22.534Z,13.57
2023-03-01T16:45:50.129Z,10.50
2023-03-01T16:48:17.437Z,12.95
2023-03-01T16:50:45.082Z,11.10
2023-03-01T16:53:13.068Z,9.13
2023-03-01T16:55:46.246Z,15.93
2023-03-01T16:58:13.669Z,11.45
2023-03-01T17:00:41.193Z,12.20
2023-03-01T17:03:08.702Z,12.77
2023-03-01T17:05:37.188Z,10.23
2023-03-01T17:08:04.527Z,12.68
2023-03-01T17:10:33.939Z,13.20
2023-03-01T17:13:01.262Z,12.57
2023-03-01T17:15:28.730Z,10.93
2023-03-01T17:17:56.108Z,11.65
2023-03-01T17:20:23.512Z,13.30
2023-03-01T17:22:53.591Z,13.20
2023-03-01T17:25:21.022Z,10.73
2023-03-01T17:27:48.370Z,10.30
2023-03-01T17:30:16.176Z,15.95
2023-03-01T17:32:43.653Z,16.83
2023-03-01T17:35:13.867Z,10.55
2023-03-01T17:37:46.465Z,10.43
2023-03-01T17:40:15.839Z,10.18
2023-03-01T17:42:43.137Z,9.90
2023-03-01T17:45:10.827Z,11.50
2023-03-01T17:47:38.422Z,11.38
2023-03-01T17:50:08.198Z,10.55
2023-03-01T17:52:36.957Z,10.05
2023-03-01T17:55:05.372Z,10.98
2023-03-01T17:57:32.957Z,9.82
2023-03-01T18:00:00.338Z,10.43
2023-03-01T18:02:27.756Z,11.63
2023-03-01T18:05:01.666Z,12.90
2023-03-01T18:07:29.106Z,13.77
2023-03-01T18:09:56.588Z,11.70
2023-03-01T18:12:24.010Z,8.82
2023-03-01T18:14:54.472Z,10.32
2023-03-01T18:17:24.035Z,10.45
2023-03-01T18:19:51.841Z,12.20
2023-03-01T18:22:19.141Z,7.68
2023-03-01T18:24:46.820Z,8.00
2023-03-01T18:27:14.114Z,10.23
2023-03-01T18:29:41.648Z,8.73
2023-03-01T18:32:09.011Z,8.88
2023-03-01T18:34:36.494Z,8.63
2023-03-01T18:37:09.512Z,11.05
2023-03-01T18:39:38.110Z,11.70
2023-03-01T18:42:05.686Z,8.77
2023-03-01T18:44:33.607Z,6.82
2023-03-01T18:47:01.174Z,8.60
2023-03-01T18:49:28.476Z,9.30
2023-03-01T18:51:56.442Z,9.70
2023-03-01T18:54:23.948Z,8.73
2023-03-01T18:56:51.427Z,8.20
2023-03-01T18:59:19.040Z,8.32
2023-03-01T19:01:46.650Z,10.38
2023-03-01T19:04:15.487Z,8.35
2023-03-01T19:06:43.005Z,7.22
2023-03-01T19:09:11.442Z,6.78
2023-03-01T19:11:40.129Z,9.57
2023-03-01T19:14:08.537Z,8.50
2023-03-01T19:16:36.237Z,8.52
2023-03-01T19:19:05.360Z,7.13
2023-03-01T19:21:33.734Z,7.05
2023-03-01T19:24:02.541Z,8.70
2023-03-01T19:26:30.927Z,7.32
2023-03-01T19:28:58.897Z,6.97
2023-03-01T19:31:28.932Z,8.00
2023-03-01T19:34:08.981Z,8.88
2023-03-01T19:36:42.729Z,6.72
2023-03-01T19:39:13.448Z,6.45
2023-03-01T19:41:41.995Z,6.60
2023-03-01T19:44:09.603Z,6.68
2023-03-01T19:46:37.395Z,10.75
2023-03-01T19:49:05.495Z,6.85
2023-03-01T19:51:35.585Z,6.95
2023-03-01T19:54:05.445Z,7.95
2023-03-01T19:56:34.014Z,4.85
2023-03-01T19:59:04.300Z,6.72
2023-03-01T20:01:34.899Z,5.45
2023-03-01T20:04:03.734Z,5.07
2023-03-01T20:06:31.808Z,4.72
2023-03-01T20:09:09.001Z,4.40
2023-03-01T20:11:43.307Z,5.90
2023-03-01T20:14:12.307Z,4.90
2023-03-01T20:16:40.414Z,4.45
2023-03-01T20:19:07.954Z,4.20
2023-03-01T20:21:35.669Z,5.35
2023-03-01T20:24:03.196Z,4.43
2023-03-01T20:26:32.662Z,5.70
2023-03-01T20:29:00.347Z,6.03
2023-03-01T20:31:30.513Z,3.83
2023-03-01T20:33:59.818Z,6.40
2023-03-01T20:36:28.113Z,6.00
2023-03-01T20:38:56.116Z,5.55
2023-03-01T20:41:26.508Z,4.75
2023-03-01T20:43:57.365Z,6.85
2023-03-01T20:46:27.994Z,5.53
2023-03-01T20:48:55.704Z,4.28
2023-03-01T20:51:23.277Z,3.85
2023-03-01T20:53:51.468Z,4.40
2023-03-01T20:56:21.166Z,4.03
2023-03-01T20:59:09.725Z,4.65
2023-03-01T21:01:39.397Z,3.88
2023-03-01T21:04:07.874Z,4.63
2023-03-01T21:06:36.422Z,3.50
2023-03-01T21:09:04.115Z,3.92
2023-03-01T21:11:31.527Z,4.03
2023-03-01T21:13:59.045Z,4.00
2023-03-01T21:16:26.922Z,3.35
2023-03-01T21:18:54.510Z,3.15
2023-03-01T21:21:23.413Z,3.88
2023-03-01T21:23:50.831Z,3.63
2023-03-01T21:26:20.848Z,3.88
2023-03-01T21:28:50.322Z,3.50
2023-03-01T21:31:20.591Z,5.68
2023-03-01T21:33:50.716Z,3.78
2023-03-01T21:36:18.791Z,4.50
2023-03-01T21:38:48.212Z,4.80
2023-03-01T21:41:19.360Z,4.82
2023-03-01T21:43:48.944Z,4.25
2023-03-01T21:46:19.136Z,4.20
2023-03-01T21:48:47.854Z,4.40
2023-03-01T21:51:36.248Z,3.20
2023-03-01T21:54:04.128Z,3.85
2023-03-01T21:56:34.536Z,5.38
2023-03-01T21:59:02.561Z,6.63
2023-03-01T22:01:30.723Z,3.42
2023-03-01T22:04:00.246Z,5.10
2023-03-01T22:06:35.315Z,4.28
2023-03-01T22:09:25.410Z,5.60
2023-03-01T22:11:58.474Z,3.88
2023-03-01T22:14:26.475Z,4.43
2023-03-01T22:16:54.054Z,5.22
2023-03-01T22:19:24.898Z,6.03
2023-03-01T22:21:53.068Z,4.43
2023-03-01T22:24:24.290Z,10.35
2023-03-01T22:26:52.372Z,4.43
2023-03-01T22:29:23.041Z,3.72
2023-03-01T22:31:51.014Z,3.78
2023-03-01T22:34:18.741Z,3.75
2023-03-01T22:36:46.369Z,3.53
2023-03-01T22:39:15.472Z,3.42
2023-03-01T22:41:48.148Z,3.53
2023-03-01T22:44:18.761Z,3.13
2023-03-01T22:46:46.645Z,3.78
2023-03-01T22:49:14.777Z,3.70
2023-03-01T22:51:43.561Z,3.72
2023-03-01T22:54:11.362Z,3.33
2023-03-01T22:56:39.710Z,4.00
2023-03-01T22:59:09.651Z,8.88
2023-03-01T23:01:38.790Z,2.65
2023-03-01T23:04:06.643Z,3.22
2023-03-01T23:06:34.807Z,4.65
2023-03-01T23:09:04.435Z,4.13
2023-03-01T23:11:31.744Z,3.75
2023-03-01T23:13:59.526Z,6.88
2023-03-01T23:16:27.827Z,3.42
2023-03-01T23:18:58.277Z,3.42
2023-03-01T23:21:26.832Z,4.50
2023-03-01T23:23:56.042Z,3.65
2023-03-01T23:26:26.308Z,3.90
2023-03-01T23:28:55.333Z,4.88
2023-03-01T23:31:23.330Z,2.63
2023-03-01T23:33:53.716Z,2.95
2023-03-01T23:36:23.728Z,2.80
2023-03-01T23:38:53.826Z,2.90
2023-03-01T23:41:23.186Z,3.65
2023-03-01T23:43:52.836Z,2.58
2023-03-01T23:46:23.197Z,2.95
2023-03-01T23:48:50.944Z,2.15
2023-03-01T23:51:18.796Z,2.65
2023-03-01T23:53:54.640Z,2.60
2023-03-01T23:56:26.316Z,2.28
2023-03-01T23:58:59.318Z,1.95
